createdAt,value
2019-03-21T00:00:44.257Z,16.67
2019-03-21T00:03:15.179Z,16.60
2019-03-21T00:05:45.079Z,16.97
2019-03-21T00:08:14.891Z,17.50
2019-03-21T00:11:16.611Z,17.87
2019-03-21T00:13:48.734Z,18.23
2019-03-21T00:16:19.182Z,18.10
2019-03-21T00:18:49.137Z,17.67
2019-03-21T00:21:19.004Z,17.03
2019-03-21T00:23:48.832Z,16.80
2019-03-21T00:26:20.922Z,17.47
2019-03-21T00:28:51.109Z,16.80
2019-03-21T00:31:21.454Z,17.10
2019-03-21T00:33:51.786Z,16.30
2019-03-21T00:36:21.638Z,16.73
2019-03-21T00:38:51.537Z,15.87
2019-03-21T00:41:21.706Z,15.27
2019-03-21T00:43:51.622Z,16.37
2019-03-21T00:46:23.518Z,14.87
2019-03-21T00:48:54.231Z,15.10
2019-03-21T00:51:24.085Z,15.00
2019-03-21T00:53:53.976Z,14.77
2019-03-21T00:56:24.041Z,15.47
2019-03-21T00:58:54.392Z,16.03
2019-03-21T01:01:24.192Z,16.37
2019-03-21T01:03:53.926Z,16.10
2019-03-21T01:06:24.052Z,16.30
2019-03-21T01:08:55.710Z,16.87
2019-03-21T01:11:25.596Z,16.87
2019-03-21T01:13:55.440Z,16.40
2019-03-21T01:16:25.314Z,17.23
2019-03-21T01:18:55.716Z,16.87
2019-03-21T01:21:28.815Z,16.37
2019-03-21T01:23:58.605Z,17.40
2019-03-21T01:26:28.760Z,17.57
2019-03-21T01:28:58.603Z,18.03
2019-03-21T01:31:28.806Z,18.87
2019-03-21T01:33:59.019Z,19.17
2019-03-21T01:36:28.869Z,18.77
2019-03-21T01:38:58.675Z,19.73
2019-03-21T01:41:28.482Z,20.13
2019-03-21T01:43:59.524Z,19.70
2019-03-21T01:46:29.459Z,20.53
2019-03-21T01:48:59.744Z,20.17
2019-03-21T01:51:29.528Z,20.37
2019-03-21T01:53:59.421Z,20.00
2019-03-21T01:56:31.837Z,19.57
2019-03-21T01:59:01.734Z,19.73
2019-03-21T02:01:31.962Z,20.07
2019-03-21T02:04:02.160Z,20.53
2019-03-21T02:06:32.920Z,18.77
2019-03-21T02:09:05.417Z,19.77
2019-03-21T02:11:35.698Z,19.77
2019-03-21T02:14:05.928Z,20.50
2019-03-21T02:16:36.149Z,21.13
2019-03-21T02:19:06.043Z,22.13
2019-03-21T02:21:35.899Z,23.33
2019-03-21T02:24:07.842Z,23.83
2019-03-21T02:26:39.254Z,24.83
2019-03-21T02:29:09.919Z,23.03
2019-03-21T02:31:39.815Z,22.50
2019-03-21T02:34:10.000Z,21.73
2019-03-21T02:36:40.148Z,23.33
2019-03-21T02:39:09.967Z,22.57
2019-03-21T02:41:39.969Z,22.33
2019-03-21T02:44:10.043Z,22.57
2019-03-21T02:46:39.930Z,22.67
2019-03-21T02:49:10.068Z,25.73
2019-03-21T02:51:40.307Z,26.97
2019-03-21T02:54:12.709Z,27.67
2019-03-21T02:56:44.207Z,26.97
2019-03-21T02:59:14.085Z,27.73
2019-03-21T03:01:47.111Z,29.77
2019-03-21T03:04:20.094Z,31.33
2019-03-21T03:06:49.999Z,31.37
2019-03-21T03:09:20.154Z,30.73
2019-03-21T03:11:50.382Z,27.90
2019-03-21T03:14:22.579Z,30.13
2019-03-21T03:16:52.216Z,28.83
2019-03-21T03:19:26.241Z,29.30
2019-03-21T03:21:56.154Z,28.43
2019-03-21T03:24:28.356Z,27.80
2019-03-21T03:26:59.098Z,29.60
2019-03-21T03:29:28.993Z,28.80
2019-03-21T03:31:58.851Z,28.53
2019-03-21T03:34:28.756Z,29.63
2019-03-21T03:36:58.647Z,30.47
2019-03-21T03:39:28.470Z,30.13
2019-03-21T03:41:58.687Z,29.00
2019-03-21T03:44:28.589Z,27.97
2019-03-21T03:46:58.501Z,29.63
2019-03-21T03:49:28.424Z,29.10
2019-03-21T03:51:58.553Z,31.03
2019-03-21T03:54:28.490Z,31.77
2019-03-21T03:56:58.857Z,31.43
2019-03-21T03:59:28.882Z,31.07
2019-03-21T04:01:58.775Z,33.63
2019-03-21T04:04:29.134Z,35.27
2019-03-21T04:06:59.219Z,37.27
2019-03-21T04:09:29.096Z,38.37
2019-03-21T04:11:58.941Z,38.03
2019-03-21T04:14:29.517Z,36.80
2019-03-21T04:17:00.173Z,35.70
2019-03-21T04:19:31.286Z,36.00
2019-03-21T04:22:01.291Z,36.83
2019-03-21T04:24:33.551Z,35.00
2019-03-21T04:27:03.695Z,36.97
2019-03-21T04:29:34.007Z,37.20
2019-03-21T04:32:04.584Z,36.47
2019-03-21T04:34:34.420Z,38.90
2019-03-21T04:37:04.221Z,38.77
2019-03-21T04:39:36.296Z,38.70
2019-03-21T04:42:07.951Z,38.43
2019-03-21T04:44:37.771Z,36.83
2019-03-21T04:47:07.586Z,37.30
2019-03-21T04:49:41.052Z,38.00
2019-03-21T04:52:12.404Z,40.40
2019-03-21T04:54:42.283Z,39.77
2019-03-21T04:57:12.756Z,40.53
2019-03-21T04:59:42.563Z,38.97
2019-03-21T05:02:12.466Z,39.13
2019-03-21T05:04:43.676Z,39.50
2019-03-21T05:07:13.566Z,38.20
2019-03-21T05:09:48.752Z,39.93
2019-03-21T05:12:18.914Z,41.03
2019-03-21T05:14:48.864Z,43.27
2019-03-21T05:17:20.180Z,44.93
2019-03-21T05:19:50.527Z,41.63
2019-03-21T05:22:20.554Z,41.43
2019-03-21T05:24:50.469Z,42.00
2019-03-21T05:27:23.270Z,43.03
2019-03-21T05:30:00.963Z,38.63
2019-03-21T05:32:30.768Z,40.60
2019-03-21T05:35:02.079Z,40.33
2019-03-21T05:37:31.981Z,39.57
2019-03-21T05:40:02.117Z,40.47
2019-03-21T05:42:31.864Z,41.63
2019-03-21T05:45:02.117Z,41.47
2019-03-21T05:47:31.925Z,41.60
2019-03-21T05:50:04.599Z,42.50
2019-03-21T05:52:37.937Z,42.77
2019-03-21T05:55:09.966Z,43.07
2019-03-21T05:57:40.338Z,44.40
2019-03-21T06:00:14.902Z,46.07
2019-03-21T06:02:45.079Z,45.07
2019-03-21T06:05:14.941Z,43.70
2019-03-21T06:07:54.016Z,43.23
2019-03-21T06:10:23.927Z,41.73
2019-03-21T06:12:53.817Z,42.90
2019-03-21T06:15:26.581Z,43.43
2019-03-21T06:18:20.089Z,43.87
2019-03-21T06:21:42.679Z,44.97
2019-03-21T06:24:40.649Z,42.43
2019-03-21T06:27:30.794Z,41.10
2019-03-21T06:30:00.622Z,41.80
2019-03-21T06:32:30.837Z,41.00
2019-03-21T06:35:02.617Z,41.70
2019-03-21T06:37:32.184Z,40.47
2019-03-21T06:40:02.087Z,42.60
2019-03-21T06:42:32.016Z,41.90
2019-03-21T06:45:01.818Z,40.97
2019-03-21T06:47:33.181Z,41.03
2019-03-21T06:50:05.784Z,41.73
2019-03-21T06:52:35.685Z,41.60
2019-03-21T06:55:05.975Z,40.27
2019-03-21T06:57:35.772Z,40.27
2019-03-21T07:00:06.657Z,39.60
2019-03-21T07:02:37.020Z,40.43
2019-03-21T07:05:07.263Z,40.27
2019-03-21T07:07:39.701Z,40.70
2019-03-21T07:10:13.550Z,39.53
2019-03-21T07:12:42.636Z,39.70
2019-03-21T07:15:12.812Z,38.87
2019-03-21T07:17:44.741Z,38.43
2019-03-21T07:20:15.004Z,38.17
2019-03-21T07:22:44.737Z,36.47
2019-03-21T07:25:17.424Z,37.07
2019-03-21T07:27:47.630Z,39.17
2019-03-21T07:30:17.527Z,36.30
2019-03-21T07:32:47.432Z,36.53
2019-03-21T07:35:17.327Z,37.30
2019-03-21T07:37:47.595Z,37.33
2019-03-21T07:40:19.138Z,36.33
2019-03-21T07:42:49.412Z,38.40
2019-03-21T07:45:19.582Z,37.90
2019-03-21T07:47:49.720Z,36.93
2019-03-21T07:50:19.646Z,38.83
2019-03-21T07:52:51.280Z,39.37
2019-03-21T07:55:21.350Z,38.30
2019-03-21T07:57:51.874Z,38.23
2019-03-21T08:00:24.554Z,39.90
2019-03-21T08:02:54.667Z,37.47
2019-03-21T08:05:24.566Z,36.83
2019-03-21T08:07:54.394Z,38.03
2019-03-21T08:10:24.280Z,34.60
2019-03-21T08:12:54.138Z,36.07
2019-03-21T08:15:24.534Z,32.30
2019-03-21T08:17:54.376Z,32.97
2019-03-21T08:20:24.668Z,33.67
2019-03-21T08:22:54.820Z,30.83
2019-03-21T08:25:25.027Z,32.07
2019-03-21T08:27:54.867Z,29.70
2019-03-21T08:30:39.196Z,30.43
2019-03-21T08:33:09.666Z,28.50
2019-03-21T08:35:39.466Z,26.53
2019-03-21T08:38:09.345Z,27.73
2019-03-21T08:40:39.210Z,27.17
2019-03-21T08:43:09.396Z,28.50
2019-03-21T08:45:40.155Z,27.33
2019-03-21T08:48:10.527Z,27.37
2019-03-21T08:50:40.343Z,26.70
2019-03-21T08:53:10.519Z,25.97
2019-03-21T08:55:40.647Z,26.73
2019-03-21T08:58:10.771Z,25.43
2019-03-21T09:00:41.271Z,25.20
2019-03-21T09:03:11.467Z,24.87
2019-03-21T09:05:41.332Z,24.23
2019-03-21T09:08:11.552Z,25.27
2019-03-21T09:10:41.454Z,24.47
2019-03-21T09:13:11.354Z,25.67
2019-03-21T09:15:41.292Z,25.77
2019-03-21T09:18:11.129Z,26.53
2019-03-21T09:20:41.288Z,24.83
2019-03-21T09:23:11.555Z,26.10
2019-03-21T09:25:41.658Z,24.90
2019-03-21T09:28:14.039Z,24.80
2019-03-21T09:30:43.179Z,25.03
2019-03-21T09:33:13.691Z,26.87
2019-03-21T09:35:43.470Z,24.90
2019-03-21T09:38:13.352Z,24.23
2019-03-21T09:40:43.201Z,25.13
2019-03-21T09:43:13.084Z,23.77
2019-03-21T09:45:43.055Z,23.30
2019-03-21T09:48:12.877Z,23.10
2019-03-21T09:50:42.786Z,22.90
2019-03-21T09:53:13.041Z,23.57
2019-03-21T09:55:43.159Z,23.17
2019-03-21T09:58:13.079Z,23.40
2019-03-21T10:00:43.302Z,23.33
2019-03-21T10:03:26.537Z,22.37
2019-03-21T10:06:00.350Z,24.00
2019-03-21T10:08:30.248Z,22.87
2019-03-21T10:11:00.139Z,23.20
2019-03-21T10:13:30.004Z,21.30
2019-03-21T10:15:59.899Z,20.30
2019-03-21T10:18:30.049Z,19.80
2019-03-21T10:21:00.288Z,19.83
2019-03-21T10:23:30.147Z,20.20
2019-03-21T10:25:59.961Z,20.17
2019-03-21T10:28:29.767Z,20.10
2019-03-21T10:30:59.659Z,19.50
2019-03-21T10:33:29.573Z,20.83
2019-03-21T10:35:59.544Z,20.27
2019-03-21T10:38:29.454Z,18.10
2019-03-21T10:40:59.393Z,17.90
2019-03-21T10:43:29.765Z,18.00
2019-03-21T10:46:00.321Z,17.87
2019-03-21T10:48:30.509Z,17.77
2019-03-21T10:51:00.442Z,18.07
2019-03-21T10:53:30.366Z,17.60
2019-03-21T10:56:00.470Z,15.83
2019-03-21T10:58:30.699Z,15.10
2019-03-21T11:01:01.047Z,15.73
2019-03-21T11:03:30.852Z,17.17
2019-03-21T11:06:01.250Z,16.93
2019-03-21T11:08:31.186Z,16.80
2019-03-21T11:11:00.995Z,17.43
2019-03-21T11:13:30.813Z,15.97
2019-03-21T11:16:01.129Z,15.17
2019-03-21T11:18:35.934Z,14.90
2019-03-21T11:21:02.506Z,14.67
2019-03-21T11:23:32.386Z,14.97
2019-03-21T11:26:02.396Z,15.13
2019-03-21T11:28:32.318Z,15.27
2019-03-21T11:31:02.066Z,14.20
2019-03-21T11:33:32.362Z,14.37
2019-03-21T11:36:02.516Z,13.87
2019-03-21T11:38:32.360Z,15.37
2019-03-21T11:41:02.200Z,13.57
2019-03-21T11:43:32.175Z,14.00
2019-03-21T11:46:02.053Z,12.87
2019-03-21T11:48:31.953Z,13.07
2019-03-21T11:51:02.183Z,11.37
2019-03-21T11:53:32.042Z,9.87
2019-03-21T11:56:01.894Z,10.97
2019-03-21T11:58:31.840Z,11.80
2019-03-21T12:01:01.675Z,11.90
2019-03-21T12:03:31.518Z,11.77
2019-03-21T12:06:01.459Z,11.60
2019-03-21T12:08:31.282Z,12.30
2019-03-21T12:11:01.471Z,11.70
2019-03-21T12:13:31.241Z,11.03
2019-03-21T12:16:01.082Z,11.50
2019-03-21T12:18:31.298Z,11.70
2019-03-21T12:21:01.233Z,12.40
2019-03-21T12:23:31.110Z,12.27
2019-03-21T12:26:01.315Z,10.27
2019-03-21T12:28:32.057Z,11.10
2019-03-21T12:31:02.285Z,10.50
2019-03-21T12:33:32.482Z,9.30
2019-03-21T12:36:02.333Z,9.47
2019-03-21T12:38:32.495Z,9.03
2019-03-21T12:41:02.336Z,8.70
2019-03-21T12:43:32.457Z,8.60
2019-03-21T12:46:02.815Z,9.40
2019-03-21T12:48:32.640Z,9.47
2019-03-21T12:51:02.519Z,9.13
2019-03-21T12:53:32.307Z,8.10
2019-03-21T12:56:02.539Z,8.90
2019-03-21T12:58:32.968Z,7.80
2019-03-21T13:01:03.069Z,8.70
2019-03-21T13:03:32.974Z,8.70
2019-03-21T13:06:03.093Z,8.57
2019-03-21T13:08:33.940Z,9.30
2019-03-21T13:11:04.170Z,8.07
2019-03-21T13:13:34.381Z,7.93
2019-03-21T13:16:04.666Z,8.73
2019-03-21T13:18:34.591Z,7.87
2019-03-21T13:21:04.601Z,9.33
2019-03-21T13:23:34.819Z,8.97
2019-03-21T13:26:04.649Z,8.63
2019-03-21T13:28:34.847Z,8.67
2019-03-21T13:31:05.364Z,8.80
2019-03-21T13:33:35.318Z,8.67
2019-03-21T13:36:05.774Z,9.33
2019-03-21T13:38:35.682Z,9.50
2019-03-21T13:41:05.885Z,8.83
2019-03-21T13:43:35.828Z,8.93
2019-03-21T13:46:05.802Z,14.23
2019-03-21T13:48:35.735Z,14.43
2019-03-21T13:51:06.298Z,14.33
2019-03-21T13:53:36.456Z,14.70
2019-03-21T13:56:06.427Z,15.80
2019-03-21T13:58:36.301Z,18.67
2019-03-21T14:01:06.253Z,18.93
2019-03-21T14:03:36.148Z,18.20
2019-03-21T14:06:06.652Z,18.30
2019-03-21T14:08:36.515Z,18.73
2019-03-21T14:11:06.746Z,18.77
2019-03-21T14:13:36.969Z,20.17
2019-03-21T14:16:07.178Z,18.97
2019-03-21T14:18:37.004Z,18.83
2019-03-21T14:21:06.901Z,17.90
2019-03-21T14:23:43.264Z,20.07
2019-03-21T14:26:08.219Z,20.17
2019-03-21T14:28:38.018Z,21.07
2019-03-21T14:31:08.117Z,19.70
2019-03-21T14:33:37.946Z,20.23
2019-03-21T14:36:07.885Z,20.10
2019-03-21T14:38:37.734Z,18.87
2019-03-21T14:41:07.601Z,18.90
2019-03-21T14:43:37.429Z,18.50
2019-03-21T14:46:07.762Z,17.80
2019-03-21T14:48:37.584Z,17.47
2019-03-21T14:51:07.766Z,17.97
2019-03-21T14:53:37.963Z,18.90
2019-03-21T14:56:08.162Z,20.07
2019-03-21T14:58:38.058Z,19.03
2019-03-21T15:01:07.882Z,18.60
2019-03-21T15:03:37.688Z,20.77
2019-03-21T15:06:07.516Z,20.30
2019-03-21T15:08:37.590Z,19.27
2019-03-21T15:11:16.553Z,20.63
2019-03-21T15:13:39.582Z,20.03
2019-03-21T15:16:09.692Z,19.30
2019-03-21T15:18:39.800Z,20.63
2019-03-21T15:21:09.687Z,19.70
2019-03-21T15:23:40.834Z,19.47
2019-03-21T15:26:11.126Z,19.73
2019-03-21T15:28:41.360Z,20.60
2019-03-21T15:31:11.204Z,20.60
2019-03-21T15:33:41.458Z,20.07
2019-03-21T15:36:11.356Z,19.73
2019-03-21T15:38:41.239Z,19.70
2019-03-21T15:41:11.124Z,19.70
2019-03-21T15:43:41.055Z,19.33
2019-03-21T15:46:10.955Z,18.30
2019-03-21T15:48:40.843Z,18.43
2019-03-21T15:51:11.364Z,18.90
2019-03-21T15:53:53.108Z,18.30
2019-03-21T15:56:12.777Z,18.80
2019-03-21T15:58:42.614Z,18.20
2019-03-21T16:01:12.502Z,18.50
2019-03-21T16:03:42.331Z,18.43
2019-03-21T16:06:12.200Z,17.70
2019-03-21T16:08:42.317Z,17.53
2019-03-21T16:11:12.116Z,16.57
2019-03-21T16:13:42.318Z,15.60
2019-03-21T16:16:12.148Z,15.83
2019-03-21T16:18:41.995Z,15.87
2019-03-21T16:21:12.044Z,15.93
2019-03-21T16:23:41.939Z,16.87
2019-03-21T16:26:11.787Z,15.97
2019-03-21T16:28:41.709Z,13.87
2019-03-21T16:31:11.476Z,14.53
2019-03-21T16:33:43.437Z,14.80
2019-03-21T16:36:13.655Z,14.87
2019-03-21T16:38:43.581Z,15.17
2019-03-21T16:41:13.396Z,14.90
2019-03-21T16:43:43.621Z,15.40
2019-03-21T16:46:13.788Z,14.10
2019-03-21T16:48:43.909Z,14.37
2019-03-21T16:51:13.812Z,14.47
2019-03-21T16:53:43.973Z,13.23
2019-03-21T16:56:13.925Z,13.80
2019-03-21T16:58:43.831Z,14.40
2019-03-21T17:01:13.915Z,13.43
2019-03-21T17:03:44.030Z,14.07
2019-03-21T17:06:13.961Z,12.60
2019-03-21T17:08:44.011Z,12.70
2019-03-21T17:11:13.797Z,12.83
2019-03-21T17:13:43.663Z,13.20
2019-03-21T17:16:13.824Z,13.50
2019-03-21T17:18:44.027Z,13.30
2019-03-21T17:21:13.890Z,13.43
2019-03-21T17:23:44.082Z,13.33
2019-03-21T17:26:15.849Z,14.00
2019-03-21T17:28:45.864Z,13.53
2019-03-21T17:31:15.676Z,13.93
2019-03-21T17:33:45.875Z,13.53
2019-03-21T17:36:15.865Z,14.47
2019-03-21T17:38:45.775Z,14.47
2019-03-21T17:41:15.645Z,14.07
2019-03-21T17:43:45.507Z,13.97
2019-03-21T17:46:15.968Z,14.20
2019-03-21T17:48:45.869Z,14.20
2019-03-21T17:51:16.289Z,15.47
2019-03-21T17:53:46.120Z,14.90
2019-03-21T17:56:15.944Z,14.50
2019-03-21T17:58:45.774Z,14.10
2019-03-21T18:01:15.754Z,15.10
2019-03-21T18:03:45.601Z,14.90
2019-03-21T18:06:15.717Z,14.57
2019-03-21T18:08:45.844Z,15.87
2019-03-21T18:11:15.944Z,15.50
2019-03-21T18:13:46.128Z,14.30
2019-03-21T18:16:18.582Z,16.63
2019-03-21T18:18:49.232Z,16.63
2019-03-21T18:21:19.148Z,20.63
2019-03-21T18:23:49.116Z,21.97
2019-03-21T18:26:19.012Z,21.97
2019-03-21T18:28:48.909Z,21.17
2019-03-21T18:31:19.092Z,19.87
2019-03-21T18:33:48.930Z,20.50
2019-03-21T18:36:18.840Z,21.00
2019-03-21T18:38:58.672Z,25.97
2019-03-21T18:41:20.669Z,23.40
2019-03-21T18:43:50.487Z,24.03
2019-03-21T18:46:20.317Z,26.53
2019-03-21T18:48:51.380Z,32.90
2019-03-21T18:51:21.320Z,35.43
2019-03-21T18:53:51.164Z,33.10
2019-03-21T18:56:21.016Z,34.73
2019-03-21T18:58:51.267Z,35.63
2019-03-21T19:01:21.245Z,35.23
2019-03-21T19:03:51.167Z,37.17
2019-03-21T19:06:21.000Z,37.80
2019-03-21T19:08:50.824Z,38.93
2019-03-21T19:11:20.595Z,39.43
2019-03-21T19:13:51.172Z,40.80
2019-03-21T19:16:20.993Z,41.30
2019-03-21T19:18:51.089Z,41.03
2019-03-21T19:21:21.038Z,42.00
2019-03-21T19:23:50.949Z,43.93
2019-03-21T19:26:21.063Z,44.20
2019-03-21T19:28:52.033Z,46.70
2019-03-21T19:31:22.201Z,46.77
2019-03-21T19:33:52.436Z,45.97
2019-03-21T19:36:22.301Z,47.00
2019-03-21T19:38:52.187Z,48.50
2019-03-21T19:41:22.044Z,51.13
2019-03-21T19:43:52.012Z,50.20
2019-03-21T19:46:21.914Z,50.97
2019-03-21T19:48:51.693Z,52.30
2019-03-21T19:51:21.809Z,52.50
2019-03-21T19:53:51.733Z,52.73
2019-03-21T19:56:21.629Z,51.80
2019-03-21T19:58:51.534Z,54.23
2019-03-21T20:01:21.731Z,54.53
2019-03-21T20:03:51.671Z,52.47
2019-03-21T20:06:21.493Z,53.13
2019-03-21T20:08:51.341Z,54.53
2019-03-21T20:11:21.236Z,53.37
2019-03-21T20:13:51.163Z,54.43
2019-03-21T20:16:21.282Z,52.50
2019-03-21T20:18:51.163Z,52.27
2019-03-21T20:21:21.117Z,51.80
2019-03-21T20:23:51.282Z,50.17
2019-03-21T20:26:21.204Z,48.37
2019-03-21T20:28:51.353Z,46.63
2019-03-21T20:31:21.238Z,48.07
2019-03-21T20:33:51.732Z,46.23
2019-03-21T20:36:21.607Z,47.80
2019-03-21T20:38:51.923Z,45.60
2019-03-21T20:41:22.150Z,46.87
2019-03-21T20:43:51.985Z,45.90
2019-03-21T20:46:21.925Z,45.17
2019-03-21T20:48:49.649Z,44.23
2019-03-21T20:51:20.130Z,45.33
2019-03-21T20:53:49.956Z,45.30
2019-03-21T20:56:20.023Z,45.00
2019-03-21T20:58:49.943Z,43.93
2019-03-21T21:01:20.146Z,44.70
2019-03-21T21:03:50.073Z,46.23
2019-03-21T21:06:20.016Z,45.83
2019-03-21T21:08:50.345Z,45.43
2019-03-21T21:11:20.391Z,45.10
2019-03-21T21:13:50.615Z,44.97
2019-03-21T21:16:20.595Z,43.70
2019-03-21T21:18:50.554Z,43.50
2019-03-21T21:21:20.406Z,44.73
2019-03-21T21:23:50.462Z,46.20
2019-03-21T21:26:20.302Z,44.87
2019-03-21T21:28:50.551Z,45.00
2019-03-21T21:31:20.995Z,46.87
2019-03-21T21:33:50.891Z,44.97
2019-03-21T21:36:22.207Z,47.33
2019-03-21T21:38:52.379Z,44.97
2019-03-21T21:41:22.257Z,46.80
2019-03-21T21:43:52.236Z,48.27
2019-03-21T21:46:22.152Z,47.40
2019-03-21T21:48:52.076Z,47.10
2019-03-21T21:51:22.298Z,46.87
2019-03-21T21:53:52.242Z,47.93
2019-03-21T21:56:22.312Z,47.83
2019-03-21T21:58:52.177Z,46.70
2019-03-21T22:01:22.276Z,46.97
2019-03-21T22:04:03.840Z,47.87
2019-03-21T22:06:23.658Z,50.67
2019-03-21T22:08:54.207Z,48.07
2019-03-21T22:11:24.104Z,49.00
2019-03-21T22:13:53.956Z,47.70
2019-03-21T22:16:23.937Z,49.47
2019-03-21T22:18:53.779Z,48.93
2019-03-21T22:21:23.655Z,47.47
2019-03-21T22:23:53.839Z,48.83
2019-03-21T22:26:29.528Z,49.10
2019-03-21T22:28:55.473Z,49.33
2019-03-21T22:31:25.314Z,48.47
2019-03-21T22:33:55.212Z,49.47
2019-03-21T22:36:25.034Z,50.87
2019-03-21T22:38:54.927Z,49.53
2019-03-21T22:41:25.099Z,51.60
2019-03-21T22:43:54.936Z,50.63
2019-03-21T22:46:25.543Z,52.07
2019-03-21T22:48:55.312Z,50.83
2019-03-21T22:51:25.151Z,51.10
2019-03-21T22:53:55.321Z,52.20
2019-03-21T22:56:25.200Z,53.57
2019-03-21T22:58:55.005Z,52.63
2019-03-21T23:01:24.973Z,51.67
2019-03-21T23:03:54.862Z,53.20
2019-03-21T23:06:25.341Z,51.77
2019-03-21T23:08:55.279Z,52.97
2019-03-21T23:11:25.439Z,52.80
2019-03-21T23:13:55.256Z,51.93
2019-03-21T23:16:25.105Z,50.73
2019-03-21T23:18:54.891Z,53.20
2019-03-21T23:21:24.713Z,53.40
2019-03-21T23:23:54.900Z,53.00
2019-03-21T23:26:24.741Z,53.23
2019-03-21T23:28:54.491Z,51.73
2019-03-21T23:31:24.751Z,53.87
2019-03-21T23:33:54.978Z,52.73
2019-03-21T23:36:24.703Z,52.57
2019-03-21T23:38:54.502Z,51.67
2019-03-21T23:41:24.329Z,53.17
2019-03-21T23:43:54.243Z,54.10
2019-03-21T23:46:24.038Z,53.97
2019-03-21T23:48:53.888Z,57.27
2019-03-21T23:51:23.695Z,54.93
2019-03-21T23:53:53.530Z,57.07
2019-03-21T23:56:23.300Z,56.97
2019-03-21T23:58:53.407Z,58.67
